sensor_id;sensor_type;location;lat;lon;timestamp;P1;durP1;ratioP1;P2;durP2;ratioP2
52102;SDS011;38101;53.126;6.878;2023-04-25T00:02:22;13.38;;;4.28;;
52102;SDS011;38101;53.126;6.878;2023-04-25T00:04:47;13.23;;;4.95;;
52102;SDS011;38101;53.126;6.878;2023-04-25T00:07:17;14.55;;;5.05;;
52102;SDS011;38101;53.126;6.878;2023-04-25T00:09:43;17.58;;;5.18;;
52102;SDS011;38101;53.126;6.878;2023-04-25T00:12:10;14.32;;;4.75;;
52102;SDS011;38101;53.126;6.878;2023-04-25T00:14:36;13.15;;;5.13;;
52102;SDS011;38101;53.126;6.878;2023-04-25T00:17:02;14.07;;;5.00;;
52102;SDS011;38101;53.126;6.878;2023-04-25T00:19:28;15.52;;;4.85;;
52102;SDS011;38101;53.126;6.878;2023-04-25T00:21:54;14.82;;;4.43;;
52102;SDS011;38101;53.126;6.878;2023-04-25T00:24:20;10.82;;;4.80;;
52102;SDS011;38101;53.126;6.878;2023-04-25T00:26:46;13.88;;;4.88;;
52102;SDS011;38101;53.126;6.878;2023-04-25T00:29:12;13.18;;;4.47;;
52102;SDS011;38101;53.126;6.878;2023-04-25T00:31:38;18.50;;;5.30;;
52102;SDS011;38101;53.126;6.878;2023-04-25T00:34:04;11.25;;;4.82;;
52102;SDS011;38101;53.126;6.878;2023-04-25T00:46:57;15.63;;;4.88;;
52102;SDS011;38101;53.126;6.878;2023-04-25T00:49:23;17.05;;;4.75;;
52102;SDS011;38101;53.126;6.878;2023-04-25T00:51:48;13.05;;;4.60;;
52102;SDS011;38101;53.126;6.878;2023-04-25T00:54:15;11.18;;;4.00;;
52102;SDS011;38101;53.126;6.878;2023-04-25T00:56:41;9.80;;;4.10;;
52102;SDS011;38101;53.126;6.878;2023-04-25T00:59:08;9.27;;;3.47;;
52102;SDS011;38101;53.126;6.878;2023-04-25T01:01:35;16.92;;;4.18;;
52102;SDS011;38101;53.126;6.878;2023-04-25T01:04:01;11.70;;;3.78;;
52102;SDS011;38101;53.126;6.878;2023-04-25T01:06:27;12.27;;;3.72;;
52102;SDS011;38101;53.126;6.878;2023-04-25T01:08:53;10.38;;;3.30;;
52102;SDS011;38101;53.126;6.878;2023-04-25T01:11:19;14.18;;;4.65;;
52102;SDS011;38101;53.126;6.878;2023-04-25T01:13:45;11.20;;;3.70;;
52102;SDS011;38101;53.126;6.878;2023-04-25T01:16:11;8.20;;;3.25;;
52102;SDS011;38101;53.126;6.878;2023-04-25T01:18:40;13.77;;;3.65;;
52102;SDS011;38101;53.126;6.878;2023-04-25T01:21:07;10.93;;;4.00;;
52102;SDS011;38101;53.126;6.878;2023-04-25T01:23:38;9.38;;;3.13;;
52102;SDS011;38101;53.126;6.878;2023-04-25T01:26:05;11.32;;;3.63;;
52102;SDS011;38101;53.126;6.878;2023-04-25T01:28:33;10.15;;;3.13;;
52102;SDS011;38101;53.126;6.878;2023-04-25T01:30:59;10.88;;;3.90;;
52102;SDS011;38101;53.126;6.878;2023-04-25T01:33:26;10.43;;;3.50;;
52102;SDS011;38101;53.126;6.878;2023-04-25T01:35:52;7.20;;;3.05;;
52102;SDS011;38101;53.126;6.878;2023-04-25T01:38:17;9.98;;;3.33;;
52102;SDS011;38101;53.126;6.878;2023-04-25T01:40:44;10.88;;;3.95;;
52102;SDS011;38101;53.126;6.878;2023-04-25T01:43:12;11.43;;;3.35;;
52102;SDS011;38101;53.126;6.878;2023-04-25T01:45:39;10.35;;;3.30;;
52102;SDS011;38101;53.126;6.878;2023-04-25T01:48:10;13.77;;;3.67;;
52102;SDS011;38101;53.126;6.878;2023-04-25T01:50:37;13.63;;;4.20;;
52102;SDS011;38101;53.126;6.878;2023-04-25T01:53:04;12.85;;;4.13;;
52102;SDS011;38101;53.126;6.878;2023-04-25T01:55:30;9.90;;;3.35;;
52102;SDS011;38101;53.126;6.878;2023-04-25T01:57:56;13.05;;;3.97;;
52102;SDS011;38101;53.126;6.878;2023-04-25T02:00:22;11.57;;;3.40;;
52102;SDS011;38101;53.126;6.878;2023-04-25T02:02:48;10.02;;;3.85;;
52102;SDS011;38101;53.126;6.878;2023-04-25T02:05:16;11.63;;;3.63;;
52102;SDS011;38101;53.126;6.878;2023-04-25T02:07:42;9.05;;;3.45;;
52102;SDS011;38101;53.126;6.878;2023-04-25T02:10:08;9.25;;;3.33;;
52102;SDS011;38101;53.126;6.878;2023-04-25T02:12:35;15.25;;;3.50;;
52102;SDS011;38101;53.126;6.878;2023-04-25T02:15:01;11.75;;;3.40;;
52102;SDS011;38101;53.126;6.878;2023-04-25T02:17:27;10.77;;;3.63;;
52102;SDS011;38101;53.126;6.878;2023-04-25T02:19:53;10.50;;;3.30;;
52102;SDS011;38101;53.126;6.878;2023-04-25T02:22:18;9.45;;;3.20;;
52102;SDS011;38101;53.126;6.878;2023-04-25T02:24:45;11.40;;;3.72;;
52102;SDS011;38101;53.126;6.878;2023-04-25T02:27:11;14.88;;;3.63;;
52102;SDS011;38101;53.126;6.878;2023-04-25T02:29:37;12.27;;;4.47;;
52102;SDS011;38101;53.126;6.878;2023-04-25T02:32:03;9.95;;;3.35;;
52102;SDS011;38101;53.126;6.878;2023-04-25T02:34:29;11.23;;;4.03;;
52102;SDS011;38101;53.126;6.878;2023-04-25T02:36:55;12.57;;;3.42;;
52102;SDS011;38101;53.126;6.878;2023-04-25T02:39:21;10.57;;;3.55;;
52102;SDS011;38101;53.126;6.878;2023-04-25T02:41:47;17.08;;;3.75;;
52102;SDS011;38101;53.126;6.878;2023-04-25T02:44:13;12.38;;;3.63;;
52102;SDS011;38101;53.126;6.878;2023-04-25T02:46:38;12.20;;;3.30;;
52102;SDS011;38101;53.126;6.878;2023-04-25T02:49:04;14.98;;;3.67;;
52102;SDS011;38101;53.126;6.878;2023-04-25T02:51:30;13.55;;;3.80;;
52102;SDS011;38101;53.126;6.878;2023-04-25T02:53:56;11.77;;;3.60;;
52102;SDS011;38101;53.126;6.878;2023-04-25T02:56:22;13.30;;;3.95;;
52102;SDS011;38101;53.126;6.878;2023-04-25T02:58:47;12.77;;;4.10;;
52102;SDS011;38101;53.126;6.878;2023-04-25T03:01:13;7.90;;;3.50;;
52102;SDS011;38101;53.126;6.878;2023-04-25T03:03:39;8.73;;;3.55;;
52102;SDS011;38101;53.126;6.878;2023-04-25T03:06:05;10.52;;;4.22;;
52102;SDS011;38101;53.126;6.878;2023-04-25T03:08:31;9.57;;;3.63;;
52102;SDS011;38101;53.126;6.878;2023-04-25T03:10:57;11.95;;;4.03;;
52102;SDS011;38101;53.126;6.878;2023-04-25T03:13:24;11.15;;;3.35;;
52102;SDS011;38101;53.126;6.878;2023-04-25T03:15:49;12.00;;;4.10;;
52102;SDS011;38101;53.126;6.878;2023-04-25T03:18:15;7.72;;;3.17;;
52102;SDS011;38101;53.126;6.878;2023-04-25T03:20:41;8.63;;;3.33;;
52102;SDS011;38101;53.126;6.878;2023-04-25T03:23:08;10.05;;;2.80;;
52102;SDS011;38101;53.126;6.878;2023-04-25T03:25:33;6.95;;;3.00;;
52102;SDS011;38101;53.126;6.878;2023-04-25T03:28:00;9.57;;;3.45;;
52102;SDS011;38101;53.126;6.878;2023-04-25T03:30:25;9.52;;;2.67;;
52102;SDS011;38101;53.126;6.878;2023-04-25T03:32:51;12.15;;;2.95;;
52102;SDS011;38101;53.126;6.878;2023-04-25T03:35:17;7.32;;;3.20;;
52102;SDS011;38101;53.126;6.878;2023-04-25T03:37:43;10.27;;;3.10;;
52102;SDS011;38101;53.126;6.878;2023-04-25T03:40:11;9.77;;;3.47;;
52102;SDS011;38101;53.126;6.878;2023-04-25T03:42:37;9.93;;;3.20;;
52102;SDS011;38101;53.126;6.878;2023-04-25T03:45:03;11.43;;;3.88;;
52102;SDS011;38101;53.126;6.878;2023-04-25T03:47:29;8.20;;;3.33;;
52102;SDS011;38101;53.126;6.878;2023-04-25T03:49:55;10.52;;;3.05;;
52102;SDS011;38101;53.126;6.878;2023-04-25T03:52:21;10.43;;;3.30;;
52102;SDS011;38101;53.126;6.878;2023-04-25T03:54:47;8.95;;;3.17;;
52102;SDS011;38101;53.126;6.878;2023-04-25T03:57:12;13.60;;;3.35;;
52102;SDS011;38101;53.126;6.878;2023-04-25T03:59:38;6.72;;;3.03;;
52102;SDS011;38101;53.126;6.878;2023-04-25T04:02:04;10.90;;;3.15;;
52102;SDS011;38101;53.126;6.878;2023-04-25T04:04:30;11.35;;;3.17;;
52102;SDS011;38101;53.126;6.878;2023-04-25T04:06:56;9.60;;;3.25;;
52102;SDS011;38101;53.126;6.878;2023-04-25T04:09:22;9.50;;;3.42;;
52102;SDS011;38101;53.126;6.878;2023-04-25T04:11:47;7.68;;;2.83;;
52102;SDS011;38101;53.126;6.878;2023-04-25T04:14:13;9.05;;;3.22;;
52102;SDS011;38101;53.126;6.878;2023-04-25T04:16:39;10.48;;;3.42;;
52102;SDS011;38101;53.126;6.878;2023-04-25T04:19:05;8.77;;;3.13;;
52102;SDS011;38101;53.126;6.878;2023-04-25T04:21:31;9.20;;;2.70;;
52102;SDS011;38101;53.126;6.878;2023-04-25T04:23:57;8.85;;;2.95;;
52102;SDS011;38101;53.126;6.878;2023-04-25T04:26:25;9.52;;;3.58;;
52102;SDS011;38101;53.126;6.878;2023-04-25T04:28:51;11.57;;;2.80;;
52102;SDS011;38101;53.126;6.878;2023-04-25T04:31:19;8.32;;;3.05;;
52102;SDS011;38101;53.126;6.878;2023-04-25T04:33:49;9.23;;;2.72;;
52102;SDS011;38101;53.126;6.878;2023-04-25T04:36:16;6.22;;;2.40;;
52102;SDS011;38101;53.126;6.878;2023-04-25T04:38:44;8.45;;;2.95;;
52102;SDS011;38101;53.126;6.878;2023-04-25T04:41:10;12.32;;;2.83;;
52102;SDS011;38101;53.126;6.878;2023-04-25T04:43:36;12.32;;;3.08;;
52102;SDS011;38101;53.126;6.878;2023-04-25T04:46:02;10.45;;;3.10;;
52102;SDS011;38101;53.126;6.878;2023-04-25T04:48:31;9.43;;;2.90;;
52102;SDS011;38101;53.126;6.878;2023-04-25T04:51:00;10.60;;;3.03;;
52102;SDS011;38101;53.126;6.878;2023-04-25T04:53:26;8.40;;;2.95;;
52102;SDS011;38101;53.126;6.878;2023-04-25T04:55:52;10.60;;;2.95;;
52102;SDS011;38101;53.126;6.878;2023-04-25T04:58:19;10.05;;;3.38;;
52102;SDS011;38101;53.126;6.878;2023-04-25T05:00:45;10.10;;;2.75;;
52102;SDS011;38101;53.126;6.878;2023-04-25T05:03:11;10.10;;;3.42;;
52102;SDS011;38101;53.126;6.878;2023-04-25T05:05:37;10.40;;;3.20;;
52102;SDS011;38101;53.126;6.878;2023-04-25T05:08:05;8.75;;;2.85;;
52102;SDS011;38101;53.126;6.878;2023-04-25T05:10:31;13.13;;;3.50;;
52102;SDS011;38101;53.126;6.878;2023-04-25T05:12:57;8.75;;;2.83;;
52102;SDS011;38101;53.126;6.878;2023-04-25T05:15:23;7.97;;;3.03;;
52102;SDS011;38101;53.126;6.878;2023-04-25T05:17:49;11.43;;;4.15;;
52102;SDS011;38101;53.126;6.878;2023-04-25T05:20:15;8.77;;;2.90;;
52102;SDS011;38101;53.126;6.878;2023-04-25T05:22:40;11.80;;;3.40;;
52102;SDS011;38101;53.126;6.878;2023-04-25T05:25:07;8.90;;;3.20;;
52102;SDS011;38101;53.126;6.878;2023-04-25T05:27:34;10.85;;;3.20;;
52102;SDS011;38101;53.126;6.878;2023-04-25T05:30:00;9.00;;;3.17;;
52102;SDS011;38101;53.126;6.878;2023-04-25T05:32:26;9.15;;;3.03;;
52102;SDS011;38101;53.126;6.878;2023-04-25T05:34:52;9.57;;;2.60;;
52102;SDS011;38101;53.126;6.878;2023-04-25T05:37:18;6.68;;;2.45;;
52102;SDS011;38101;53.126;6.878;2023-04-25T05:39:43;12.00;;;2.60;;
52102;SDS011;38101;53.126;6.878;2023-04-25T05:42:09;8.63;;;2.50;;
52102;SDS011;38101;53.126;6.878;2023-04-25T05:44:35;8.07;;;2.58;;
52102;SDS011;38101;53.126;6.878;2023-04-25T05:47:01;7.57;;;2.38;;
52102;SDS011;38101;53.126;6.878;2023-04-25T05:49:27;6.47;;;2.08;;
52102;SDS011;38101;53.126;6.878;2023-04-25T05:51:52;5.55;;;2.35;;
52102;SDS011;38101;53.126;6.878;2023-04-25T05:54:18;12.50;;;2.75;;
52102;SDS011;38101;53.126;6.878;2023-04-25T05:56:44;7.55;;;2.55;;
52102;SDS011;38101;53.126;6.878;2023-04-25T05:59:09;4.35;;;2.33;;
52102;SDS011;38101;53.126;6.878;2023-04-25T06:01:35;7.20;;;2.42;;
52102;SDS011;38101;53.126;6.878;2023-04-25T06:04:01;5.35;;;2.40;;
52102;SDS011;38101;53.126;6.878;2023-04-25T06:06:27;6.25;;;2.25;;
52102;SDS011;38101;53.126;6.878;2023-04-25T06:08:53;5.53;;;2.05;;
52102;SDS011;38101;53.126;6.878;2023-04-25T06:11:20;5.35;;;1.83;;
52102;SDS011;38101;53.126;6.878;2023-04-25T06:13:46;6.45;;;2.80;;
52102;SDS011;38101;53.126;6.878;2023-04-25T06:16:11;7.60;;;2.50;;
52102;SDS011;38101;53.126;6.878;2023-04-25T06:18:37;6.88;;;2.22;;
52102;SDS011;38101;53.126;6.878;2023-04-25T06:21:03;8.63;;;2.78;;
52102;SDS011;38101;53.126;6.878;2023-04-25T06:23:29;7.80;;;2.20;;
52102;SDS011;38101;53.126;6.878;2023-04-25T06:25:55;6.32;;;2.20;;
52102;SDS011;38101;53.126;6.878;2023-04-25T06:28:20;7.20;;;2.58;;
52102;SDS011;38101;53.126;6.878;2023-04-25T06:30:47;4.68;;;2.35;;
52102;SDS011;38101;53.126;6.878;2023-04-25T06:33:12;6.90;;;2.75;;
52102;SDS011;38101;53.126;6.878;2023-04-25T06:35:38;6.47;;;2.10;;
52102;SDS011;38101;53.126;6.878;2023-04-25T06:38:04;4.47;;;1.80;;
52102;SDS011;38101;53.126;6.878;2023-04-25T06:40:30;4.55;;;2.55;;
52102;SDS011;38101;53.126;6.878;2023-04-25T06:42:55;6.72;;;2.38;;
52102;SDS011;38101;53.126;6.878;2023-04-25T06:45:21;6.78;;;2.63;;
52102;SDS011;38101;53.126;6.878;2023-04-25T06:47:47;7.18;;;3.20;;
52102;SDS011;38101;53.126;6.878;2023-04-25T06:50:13;8.18;;;2.42;;
52102;SDS011;38101;53.126;6.878;2023-04-25T06:52:38;5.68;;;2.45;;
52102;SDS011;38101;53.126;6.878;2023-04-25T06:55:04;5.75;;;2.33;;
52102;SDS011;38101;53.126;6.878;2023-04-25T06:57:31;8.85;;;2.58;;
52102;SDS011;38101;53.126;6.878;2023-04-25T06:59:56;7.50;;;2.63;;
52102;SDS011;38101;53.126;6.878;2023-04-25T07:02:22;4.65;;;2.45;;
52102;SDS011;38101;53.126;6.878;2023-04-25T07:04:48;5.93;;;2.30;;
52102;SDS011;38101;53.126;6.878;2023-04-25T07:07:14;6.40;;;2.00;;
52102;SDS011;38101;53.126;6.878;2023-04-25T07:09:39;7.53;;;2.63;;
52102;SDS011;38101;53.126;6.878;2023-04-25T07:12:05;7.57;;;2.90;;
52102;SDS011;38101;53.126;6.878;2023-04-25T07:14:31;6.10;;;2.30;;
52102;SDS011;38101;53.126;6.878;2023-04-25T07:16:57;7.43;;;2.50;;
52102;SDS011;38101;53.126;6.878;2023-04-25T07:19:23;5.47;;;2.83;;
52102;SDS011;38101;53.126;6.878;2023-04-25T07:21:54;7.70;;;2.08;;
52102;SDS011;38101;53.126;6.878;2023-04-25T07:24:20;9.10;;;2.28;;
52102;SDS011;38101;53.126;6.878;2023-04-25T07:26:46;6.57;;;2.40;;
52102;SDS011;38101;53.126;6.878;2023-04-25T07:29:12;5.90;;;1.90;;
52102;SDS011;38101;53.126;6.878;2023-04-25T07:31:38;6.40;;;2.10;;
52102;SDS011;38101;53.126;6.878;2023-04-25T07:34:04;8.27;;;2.50;;
52102;SDS011;38101;53.126;6.878;2023-04-25T07:36:30;8.48;;;2.10;;
52102;SDS011;38101;53.126;6.878;2023-04-25T07:38:56;11.07;;;2.40;;
52102;SDS011;38101;53.126;6.878;2023-04-25T07:41:22;11.23;;;2.30;;
52102;SDS011;38101;53.126;6.878;2023-04-25T07:43:48;6.47;;;2.50;;
52102;SDS011;38101;53.126;6.878;2023-04-25T07:46:13;7.53;;;2.10;;
52102;SDS011;38101;53.126;6.878;2023-04-25T07:48:40;4.30;;;1.90;;
52102;SDS011;38101;53.126;6.878;2023-04-25T07:51:05;9.80;;;2.33;;
52102;SDS011;38101;53.126;6.878;2023-04-25T07:53:32;7.97;;;2.40;;
52102;SDS011;38101;53.126;6.878;2023-04-25T07:55:59;11.13;;;2.50;;
52102;SDS011;38101;53.126;6.878;2023-04-25T07:58:25;5.53;;;2.10;;
52102;SDS011;38101;53.126;6.878;2023-04-25T08:00:51;6.30;;;2.35;;
52102;SDS011;38101;53.126;6.878;2023-04-25T08:03:17;6.28;;;2.13;;
52102;SDS011;38101;53.126;6.878;2023-04-25T08:05:43;8.30;;;2.42;;
52102;SDS011;38101;53.126;6.878;2023-04-25T08:08:08;6.63;;;2.22;;
52102;SDS011;38101;53.126;6.878;2023-04-25T08:10:34;7.00;;;2.20;;
52102;SDS011;38101;53.126;6.878;2023-04-25T08:13:00;7.80;;;1.98;;
52102;SDS011;38101;53.126;6.878;2023-04-25T08:15:26;7.00;;;2.35;;
52102;SDS011;38101;53.126;6.878;2023-04-25T08:17:51;6.18;;;2.17;;
52102;SDS011;38101;53.126;6.878;2023-04-25T08:20:17;4.65;;;2.30;;
52102;SDS011;38101;53.126;6.878;2023-04-25T08:22:43;5.15;;;1.80;;
52102;SDS011;38101;53.126;6.878;2023-04-25T08:25:09;5.63;;;1.73;;
52102;SDS011;38101;53.126;6.878;2023-04-25T08:27:35;9.00;;;2.25;;
52102;SDS011;38101;53.126;6.878;2023-04-25T08:30:02;8.55;;;2.20;;
52102;SDS011;38101;53.126;6.878;2023-04-25T08:32:28;7.55;;;1.95;;
52102;SDS011;38101;53.126;6.878;2023-04-25T08:34:54;8.30;;;1.98;;
52102;SDS011;38101;53.126;6.878;2023-04-25T08:37:20;5.10;;;1.83;;
52102;SDS011;38101;53.126;6.878;2023-04-25T08:39:46;4.65;;;1.73;;
52102;SDS011;38101;53.126;6.878;2023-04-25T08:42:17;3.42;;;1.50;;
52102;SDS011;38101;53.126;6.878;2023-04-25T08:44:43;5.97;;;1.50;;
52102;SDS011;38101;53.126;6.878;2023-04-25T08:47:10;2.00;;;1.05;;
52102;SDS011;38101;53.126;6.878;2023-04-25T08:49:35;3.30;;;1.10;;
52102;SDS011;38101;53.126;6.878;2023-04-25T08:52:03;1.83;;;0.82;;
52102;SDS011;38101;53.126;6.878;2023-04-25T08:54:31;2.38;;;1.58;;
52102;SDS011;38101;53.126;6.878;2023-04-25T08:56:59;3.88;;;1.42;;
52102;SDS011;38101;53.126;6.878;2023-04-25T08:59:29;4.55;;;1.60;;
52102;SDS011;38101;53.126;6.878;2023-04-25T09:01:55;2.47;;;1.13;;
52102;SDS011;38101;53.126;6.878;2023-04-25T09:04:22;3.35;;;1.70;;
52102;SDS011;38101;53.126;6.878;2023-04-25T09:06:47;4.70;;;1.48;;
52102;SDS011;38101;53.126;6.878;2023-04-25T09:09:13;4.03;;;1.48;;
52102;SDS011;38101;53.126;6.878;2023-04-25T09:11:39;3.28;;;1.50;;
52102;SDS011;38101;53.126;6.878;2023-04-25T09:14:15;4.95;;;1.75;;
52102;SDS011;38101;53.126;6.878;2023-04-25T09:19:27;2.70;;;1.40;;
52102;SDS011;38101;53.126;6.878;2023-04-25T09:21:55;6.30;;;1.70;;
52102;SDS011;38101;53.126;6.878;2023-04-25T09:24:30;6.32;;;1.98;;
52102;SDS011;38101;53.126;6.878;2023-04-25T09:27:00;8.27;;;2.10;;
52102;SDS011;38101;53.126;6.878;2023-04-25T09:29:28;4.55;;;2.10;;
52102;SDS011;38101;53.126;6.878;2023-04-25T09:34:42;8.30;;;2.13;;
52102;SDS011;38101;53.126;6.878;2023-04-25T09:37:10;9.35;;;2.10;;
52102;SDS011;38101;53.126;6.878;2023-04-25T09:39:37;6.22;;;2.10;;
52102;SDS011;38101;53.126;6.878;2023-04-25T09:42:04;6.00;;;2.55;;
52102;SDS011;38101;53.126;6.878;2023-04-25T09:44:30;3.92;;;1.92;;
52102;SDS011;38101;53.126;6.878;2023-04-25T09:46:57;7.47;;;2.38;;
52102;SDS011;38101;53.126;6.878;2023-04-25T09:49:24;4.43;;;1.92;;
52102;SDS011;38101;53.126;6.878;2023-04-25T09:51:56;5.45;;;2.00;;
52102;SDS011;38101;53.126;6.878;2023-04-25T09:54:23;7.05;;;2.35;;
52102;SDS011;38101;53.126;6.878;2023-04-25T09:56:51;5.78;;;1.80;;
52102;SDS011;38101;53.126;6.878;2023-04-25T09:59:21;7.03;;;2.22;;
52102;SDS011;38101;53.126;6.878;2023-04-25T10:01:50;6.70;;;2.00;;
52102;SDS011;38101;53.126;6.878;2023-04-25T10:04:22;4.13;;;1.65;;
52102;SDS011;38101;53.126;6.878;2023-04-25T10:06:51;6.97;;;2.00;;
52102;SDS011;38101;53.126;6.878;2023-04-25T10:09:21;5.68;;;1.95;;
52102;SDS011;38101;53.126;6.878;2023-04-25T10:11:50;6.93;;;2.08;;
52102;SDS011;38101;53.126;6.878;2023-04-25T10:14:17;4.18;;;2.00;;
52102;SDS011;38101;53.126;6.878;2023-04-25T10:16:44;8.00;;;2.38;;
52102;SDS011;38101;53.126;6.878;2023-04-25T10:19:10;5.57;;;2.22;;
52102;SDS011;38101;53.126;6.878;2023-04-25T10:21:43;7.15;;;2.08;;
52102;SDS011;38101;53.126;6.878;2023-04-25T10:24:13;7.10;;;2.22;;
52102;SDS011;38101;53.126;6.878;2023-04-25T10:26:40;10.65;;;2.67;;
52102;SDS011;38101;53.126;6.878;2023-04-25T10:29:06;7.82;;;2.35;;
52102;SDS011;38101;53.126;6.878;2023-04-25T10:31:31;5.97;;;2.10;;
52102;SDS011;38101;53.126;6.878;2023-04-25T10:33:59;7.03;;;2.40;;
52102;SDS011;38101;53.126;6.878;2023-04-25T10:36:26;7.20;;;2.08;;
52102;SDS011;38101;53.126;6.878;2023-04-25T10:38:58;4.32;;;1.80;;
52102;SDS011;38101;53.126;6.878;2023-04-25T10:41:32;6.18;;;2.10;;
52102;SDS011;38101;53.126;6.878;2023-04-25T10:44:12;4.53;;;1.75;;
52102;SDS011;38101;53.126;6.878;2023-04-25T10:46:39;5.28;;;1.80;;
52102;SDS011;38101;53.126;6.878;2023-04-25T10:49:05;5.43;;;1.80;;
52102;SDS011;38101;53.126;6.878;2023-04-25T10:51:35;3.40;;;1.70;;
52102;SDS011;38101;53.126;6.878;2023-04-25T10:54:05;4.72;;;1.90;;
52102;SDS011;38101;53.126;6.878;2023-04-25T10:56:33;5.95;;;2.13;;
52102;SDS011;38101;53.126;6.878;2023-04-25T10:59:13;7.45;;;2.00;;
52102;SDS011;38101;53.126;6.878;2023-04-25T11:01:43;3.08;;;1.50;;
52102;SDS011;38101;53.126;6.878;2023-04-25T11:10:12;6.43;;;1.92;;
52102;SDS011;38101;53.126;6.878;2023-04-25T11:12:38;7.15;;;2.45;;
52102;SDS011;38101;53.126;6.878;2023-04-25T11:15:05;8.48;;;2.30;;
52102;SDS011;38101;53.126;6.878;2023-04-25T11:17:32;7.85;;;2.10;;
52102;SDS011;38101;53.126;6.878;2023-04-25T11:19:58;5.25;;;2.00;;
52102;SDS011;38101;53.126;6.878;2023-04-25T11:22:25;8.07;;;2.25;;
52102;SDS011;38101;53.126;6.878;2023-04-25T11:24:52;4.22;;;1.67;;
52102;SDS011;38101;53.126;6.878;2023-04-25T11:27:18;5.22;;;1.95;;
52102;SDS011;38101;53.126;6.878;2023-04-25T11:29:43;5.97;;;2.10;;
52102;SDS011;38101;53.126;6.878;2023-04-25T11:32:09;8.23;;;2.20;;
52102;SDS011;38101;53.126;6.878;2023-04-25T11:34:35;5.78;;;2.00;;
52102;SDS011;38101;53.126;6.878;2023-04-25T11:37:01;6.13;;;2.00;;
52102;SDS011;38101;53.126;6.878;2023-04-25T11:39:27;6.65;;;2.00;;
52102;SDS011;38101;53.126;6.878;2023-04-25T11:41:54;7.32;;;2.20;;
52102;SDS011;38101;53.126;6.878;2023-04-25T11:44:20;4.78;;;1.90;;
52102;SDS011;38101;53.126;6.878;2023-04-25T11:46:47;8.38;;;2.30;;
52102;SDS011;38101;53.126;6.878;2023-04-25T11:49:13;5.30;;;2.00;;
52102;SDS011;38101;53.126;6.878;2023-04-25T11:51:43;7.50;;;1.98;;
52102;SDS011;38101;53.126;6.878;2023-04-25T11:54:10;4.45;;;1.80;;
52102;SDS011;38101;53.126;6.878;2023-04-25T11:56:37;6.05;;;2.13;;
52102;SDS011;38101;53.126;6.878;2023-04-25T11:59:06;5.07;;;1.88;;
52102;SDS011;38101;53.126;6.878;2023-04-25T12:01:32;6.07;;;1.90;;
52102;SDS011;38101;53.126;6.878;2023-04-25T12:04:16;6.93;;;2.08;;
52102;SDS011;38101;53.126;6.878;2023-04-25T12:06:47;7.25;;;2.22;;
52102;SDS011;38101;53.126;6.878;2023-04-25T12:09:15;4.53;;;1.80;;
52102;SDS011;38101;53.126;6.878;2023-04-25T12:11:56;7.88;;;2.70;;
52102;SDS011;38101;53.126;6.878;2023-04-25T12:14:24;7.13;;;2.60;;
52102;SDS011;38101;53.126;6.878;2023-04-25T12:16:52;6.72;;;1.88;;
52102;SDS011;38101;53.126;6.878;2023-04-25T12:19:20;6.15;;;2.00;;
52102;SDS011;38101;53.126;6.878;2023-04-25T12:21:47;5.30;;;2.10;;
52102;SDS011;38101;53.126;6.878;2023-04-25T12:26:50;5.90;;;2.30;;
52102;SDS011;38101;53.126;6.878;2023-04-25T12:29:17;8.32;;;2.75;;
52102;SDS011;38101;53.126;6.878;2023-04-25T12:31:45;5.57;;;1.90;;
52102;SDS011;38101;53.126;6.878;2023-04-25T12:34:11;6.32;;;2.15;;
52102;SDS011;38101;53.126;6.878;2023-04-25T12:36:37;7.20;;;2.13;;
52102;SDS011;38101;53.126;6.878;2023-04-25T12:39:03;6.88;;;1.98;;
52102;SDS011;38101;53.126;6.878;2023-04-25T12:41:30;4.75;;;1.83;;
52102;SDS011;38101;53.126;6.878;2023-04-25T12:43:55;5.97;;;2.00;;
52102;SDS011;38101;53.126;6.878;2023-04-25T12:46:21;4.95;;;1.80;;
52102;SDS011;38101;53.126;6.878;2023-04-25T12:48:48;10.07;;;2.00;;
52102;SDS011;38101;53.126;6.878;2023-04-25T12:51:14;9.63;;;2.65;;
52102;SDS011;38101;53.126;6.878;2023-04-25T12:53:40;6.32;;;2.50;;
52102;SDS011;38101;53.126;6.878;2023-04-25T12:56:06;7.97;;;2.03;;
52102;SDS011;38101;53.126;6.878;2023-04-25T12:58:33;7.93;;;2.33;;
52102;SDS011;38101;53.126;6.878;2023-04-25T13:00:59;6.38;;;2.28;;
52102;SDS011;38101;53.126;6.878;2023-04-25T13:03:25;6.50;;;2.17;;
52102;SDS011;38101;53.126;6.878;2023-04-25T13:05:51;5.75;;;1.95;;
52102;SDS011;38101;53.126;6.878;2023-04-25T13:08:18;5.68;;;1.65;;
52102;SDS011;38101;53.126;6.878;2023-04-25T13:10:44;5.35;;;1.88;;
52102;SDS011;38101;53.126;6.878;2023-04-25T13:13:10;6.53;;;1.95;;
52102;SDS011;38101;53.126;6.878;2023-04-25T13:15:36;7.68;;;2.10;;
52102;SDS011;38101;53.126;6.878;2023-04-25T13:18:05;9.30;;;2.58;;
52102;SDS011;38101;53.126;6.878;2023-04-25T13:20:31;5.10;;;1.90;;
52102;SDS011;38101;53.126;6.878;2023-04-25T13:22:57;5.90;;;2.45;;
52102;SDS011;38101;53.126;6.878;2023-04-25T13:25:22;5.95;;;1.90;;
52102;SDS011;38101;53.126;6.878;2023-04-25T13:27:48;5.78;;;1.77;;
52102;SDS011;38101;53.126;6.878;2023-04-25T13:30:14;5.97;;;1.92;;
52102;SDS011;38101;53.126;6.878;2023-04-25T13:32:40;4.50;;;1.70;;
52102;SDS011;38101;53.126;6.878;2023-04-25T13:35:07;7.80;;;2.42;;
52102;SDS011;38101;53.126;6.878;2023-04-25T13:37:34;4.47;;;2.30;;
52102;SDS011;38101;53.126;6.878;2023-04-25T13:40:01;9.20;;;2.67;;
52102;SDS011;38101;53.126;6.878;2023-04-25T13:42:29;6.03;;;2.10;;
52102;SDS011;38101;53.126;6.878;2023-04-25T13:44:55;6.70;;;2.38;;
52102;SDS011;38101;53.126;6.878;2023-04-25T13:47:21;6.97;;;1.88;;
52102;SDS011;38101;53.126;6.878;2023-04-25T13:49:48;5.65;;;2.03;;
52102;SDS011;38101;53.126;6.878;2023-04-25T13:52:15;6.10;;;2.30;;
52102;SDS011;38101;53.126;6.878;2023-04-25T13:54:40;5.57;;;1.92;;
52102;SDS011;38101;53.126;6.878;2023-04-25T13:57:06;6.03;;;2.05;;
52102;SDS011;38101;53.126;6.878;2023-04-25T13:59:32;6.70;;;2.33;;
52102;SDS011;38101;53.126;6.878;2023-04-25T14:01:58;5.40;;;2.20;;
52102;SDS011;38101;53.126;6.878;2023-04-25T14:04:24;7.68;;;2.10;;
52102;SDS011;38101;53.126;6.878;2023-04-25T14:06:50;7.93;;;2.40;;
52102;SDS011;38101;53.126;6.878;2023-04-25T14:09:16;9.82;;;2.55;;
52102;SDS011;38101;53.126;6.878;2023-04-25T14:11:42;7.45;;;2.13;;
52102;SDS011;38101;53.126;6.878;2023-04-25T14:14:08;7.50;;;2.40;;
52102;SDS011;38101;53.126;6.878;2023-04-25T14:16:34;5.05;;;1.70;;
52102;SDS011;38101;53.126;6.878;2023-04-25T14:19:00;6.57;;;2.30;;
52102;SDS011;38101;53.126;6.878;2023-04-25T14:21:26;5.03;;;2.05;;
52102;SDS011;38101;53.126;6.878;2023-04-25T14:23:53;4.57;;;1.70;;
52102;SDS011;38101;53.126;6.878;2023-04-25T14:26:19;4.85;;;1.95;;
52102;SDS011;38101;53.126;6.878;2023-04-25T14:28:45;4.80;;;1.92;;
52102;SDS011;38101;53.126;6.878;2023-04-25T14:31:11;4.90;;;1.75;;
52102;SDS011;38101;53.126;6.878;2023-04-25T14:33:36;5.45;;;1.90;;
52102;SDS011;38101;53.126;6.878;2023-04-25T14:36:04;5.25;;;1.83;;
52102;SDS011;38101;53.126;6.878;2023-04-25T14:38:30;4.65;;;1.77;;
52102;SDS011;38101;53.126;6.878;2023-04-25T14:40:56;4.57;;;1.92;;
52102;SDS011;38101;53.126;6.878;2023-04-25T14:43:22;6.50;;;2.10;;
52102;SDS011;38101;53.126;6.878;2023-04-25T14:45:47;7.75;;;2.35;;
52102;SDS011;38101;53.126;6.878;2023-04-25T14:48:13;4.55;;;2.17;;
52102;SDS011;38101;53.126;6.878;2023-04-25T14:50:40;6.85;;;2.65;;
52102;SDS011;38101;53.126;6.878;2023-04-25T14:53:05;10.90;;;2.60;;
52102;SDS011;38101;53.126;6.878;2023-04-25T14:55:31;7.13;;;2.03;;
52102;SDS011;38101;53.126;6.878;2023-04-25T14:57:57;6.55;;;1.95;;
52102;SDS011;38101;53.126;6.878;2023-04-25T15:00:23;6.22;;;1.88;;
52102;SDS011;38101;53.126;6.878;2023-04-25T15:02:50;7.05;;;1.80;;
52102;SDS011;38101;53.126;6.878;2023-04-25T15:05:16;6.07;;;1.98;;